createdAt,value
2023-01-29T00:00:22.439Z,-1.88
2023-01-29T00:03:11.217Z,-1.89
2023-01-29T00:05:40.471Z,-1.91
2023-01-29T00:08:09.466Z,-1.95
2023-01-29T00:10:38.251Z,-1.97
2023-01-29T00:13:07.134Z,-2.00
2023-01-29T00:15:36.087Z,-2.00
2023-01-29T00:18:05.648Z,-2.02
2023-01-29T00:20:35.537Z,-2.05
2023-01-29T00:23:04.696Z,-2.09
2023-01-29T00:25:33.853Z,-2.09
2023-01-29T00:28:03.823Z,-2.09
2023-01-29T00:30:33.880Z,-2.08
2023-01-29T00:33:04.075Z,-2.03
2023-01-29T00:35:33.630Z,-1.98
2023-01-29T00:38:02.797Z,-1.95
2023-01-29T00:40:52.191Z,-1.94
2023-01-29T00:43:41.234Z,-1.90
2023-01-29T00:46:10.535Z,-1.87
2023-01-29T00:48:40.356Z,-1.85
2023-01-29T00:51:09.937Z,-1.84
2023-01-29T00:53:39.913Z,-1.87
2023-01-29T00:56:08.865Z,-1.89
2023-01-29T00:58:38.059Z,-1.91
2023-01-29T01:01:07.401Z,-1.94
2023-01-29T01:03:43.030Z,-1.96
2023-01-29T01:06:12.462Z,-1.98
2023-01-29T01:09:00.562Z,-2.01
2023-01-29T01:11:30.326Z,-2.01
2023-01-29T01:14:02.527Z,-2.00
2023-01-29T01:16:31.408Z,-1.99
2023-01-29T01:19:01.142Z,-1.96
2023-01-29T01:21:30.365Z,-1.95
2023-01-29T01:23:59.563Z,-1.93
2023-01-29T01:26:30.048Z,-1.90
2023-01-29T01:29:00.192Z,-1.89
2023-01-29T01:31:28.950Z,-1.90
2023-01-29T01:33:58.059Z,-1.91
2023-01-29T01:36:28.914Z,-1.94
2023-01-29T01:38:58.310Z,-1.95
2023-01-29T01:41:28.316Z,-1.94
2023-01-29T01:44:04.586Z,-1.98
2023-01-29T01:46:38.358Z,-2.02
2023-01-29T01:49:20.166Z,-2.13
2023-01-29T01:51:52.752Z,-2.19
2023-01-29T01:54:29.319Z,-2.23
2023-01-29T01:57:10.084Z,-2.32
2023-01-29T01:59:42.398Z,-2.34
2023-01-29T02:02:31.188Z,-2.35
2023-01-29T02:05:19.577Z,-2.35
2023-01-29T02:08:09.989Z,-2.37
2023-01-29T02:10:49.188Z,-2.40
2023-01-29T02:13:19.465Z,-2.39
2023-01-29T02:15:52.288Z,-2.40
2023-01-29T02:18:22.572Z,-2.41
2023-01-29T02:21:26.128Z,-2.45
2023-01-29T02:24:24.356Z,-2.49
2023-01-29T02:27:15.214Z,-2.52
2023-01-29T02:30:13.494Z,-2.54
2023-01-29T02:32:59.198Z,-2.55
2023-01-29T02:35:37.826Z,-2.60
2023-01-29T02:38:21.940Z,-2.63
2023-01-29T02:41:07.580Z,-2.62
2023-01-29T02:43:49.020Z,-2.63
2023-01-29T02:47:07.295Z,-2.68
2023-01-29T02:49:48.350Z,-2.71
2023-01-29T02:52:27.688Z,-2.72
2023-01-29T02:55:08.323Z,-2.75
2023-01-29T02:57:44.732Z,-2.76
2023-01-29T03:00:25.007Z,-2.79
2023-01-29T03:03:03.842Z,-2.79
2023-01-29T03:05:58.612Z,-2.79
2023-01-29T03:08:43.937Z,-2.78
2023-01-29T03:11:17.040Z,-2.78
2023-01-29T03:14:14.438Z,-2.77
2023-01-29T03:16:51.465Z,-2.76
2023-01-29T03:19:38.653Z,-2.77
2023-01-29T03:22:17.217Z,-2.81
2023-01-29T03:25:14.281Z,-2.83
2023-01-29T03:28:13.780Z,-2.83
2023-01-29T03:31:16.643Z,-2.83
2023-01-29T03:34:17.098Z,-2.84
2023-01-29T03:37:02.633Z,-2.84
2023-01-29T03:39:33.049Z,-2.81
2023-01-29T03:42:35.085Z,-2.78
2023-01-29T03:45:22.798Z,-2.75
2023-01-29T03:48:06.274Z,-2.72
2023-01-29T03:51:17.456Z,-2.71
2023-01-29T03:54:06.585Z,-2.68
2023-01-29T03:56:42.119Z,-2.67
2023-01-29T03:59:48.480Z,-2.65
2023-01-29T04:02:36.354Z,-2.63
2023-01-29T04:05:20.308Z,-2.62
2023-01-29T04:08:05.671Z,-2.60
2023-01-29T04:10:39.296Z,-2.57
2023-01-29T04:13:13.401Z,-2.53
2023-01-29T04:15:58.886Z,-2.48
2023-01-29T04:18:55.300Z,-2.45
2023-01-29T04:21:32.252Z,-2.41
2023-01-29T04:24:01.494Z,-2.39
2023-01-29T04:26:41.891Z,-2.37
2023-01-29T04:29:31.079Z,-2.33
2023-01-29T04:32:33.447Z,-2.30
2023-01-29T04:35:11.786Z,-2.30
2023-01-29T04:37:54.307Z,-2.29
2023-01-29T04:40:44.992Z,-2.28
2023-01-29T04:43:22.675Z,-2.24
2023-01-29T04:46:02.742Z,-2.23
2023-01-29T04:48:48.428Z,-2.25
2023-01-29T04:51:31.359Z,-2.28
2023-01-29T04:54:40.086Z,-2.31
2023-01-29T04:57:26.274Z,-2.32
2023-01-29T05:00:15.349Z,-2.30
2023-01-29T05:02:45.931Z,-2.32
2023-01-29T05:05:18.623Z,-2.32
2023-01-29T05:07:49.444Z,-2.35
2023-01-29T05:10:22.405Z,-2.39
2023-01-29T05:13:03.966Z,-2.40
2023-01-29T05:15:38.598Z,-2.40
2023-01-29T05:18:09.365Z,-2.39
2023-01-29T05:20:41.749Z,-2.40
2023-01-29T05:23:22.596Z,-2.43
2023-01-29T05:25:53.168Z,-2.45
2023-01-29T05:28:22.770Z,-2.48
2023-01-29T05:30:54.907Z,-2.51
2023-01-29T05:33:29.610Z,-2.53
2023-01-29T05:36:01.720Z,-2.55
2023-01-29T05:38:31.117Z,-2.54
2023-01-29T05:41:00.325Z,-2.52
2023-01-29T05:43:29.107Z,-2.49
2023-01-29T05:46:00.730Z,-2.47
2023-01-29T05:48:31.689Z,-2.44
2023-01-29T05:51:02.297Z,-2.43
2023-01-29T05:53:32.242Z,-2.47
2023-01-29T05:56:03.557Z,-2.52
2023-01-29T05:58:35.922Z,-2.55
2023-01-29T06:01:13.601Z,-2.55
2023-01-29T06:03:43.200Z,-2.52
2023-01-29T06:06:12.539Z,-2.50
2023-01-29T06:08:41.869Z,-2.51
2023-01-29T06:11:13.189Z,-2.51
2023-01-29T06:13:42.643Z,-2.52
2023-01-29T06:16:14.267Z,-2.51
2023-01-29T06:18:43.774Z,-2.51
2023-01-29T06:21:14.849Z,-2.48
2023-01-29T06:23:43.591Z,-2.45
2023-01-29T06:26:15.936Z,-2.42
2023-01-29T06:28:46.122Z,-2.40
2023-01-29T06:34:04.907Z,-2.38
2023-01-29T06:36:33.445Z,-2.35
2023-01-29T06:39:02.657Z,-2.35
2023-01-29T06:41:31.653Z,-2.37
2023-01-29T06:44:00.326Z,-2.37
2023-01-29T06:46:29.220Z,-2.35
2023-01-29T06:49:00.604Z,-2.33
2023-01-29T06:51:29.759Z,-2.28
2023-01-29T06:53:58.444Z,-2.30
2023-01-29T06:56:27.120Z,-2.29
2023-01-29T06:58:56.222Z,-2.26
2023-01-29T07:01:35.752Z,-2.23
2023-01-29T07:04:05.214Z,-2.19
2023-01-29T07:06:34.367Z,-2.16
2023-01-29T07:09:04.404Z,-2.13
2023-01-29T07:11:35.720Z,-2.08
2023-01-29T07:14:04.520Z,-2.04
2023-01-29T07:16:33.347Z,-1.99
2023-01-29T07:19:02.290Z,-1.98
2023-01-29T07:21:30.999Z,-1.97
2023-01-29T07:23:59.765Z,-1.92
2023-01-29T07:26:28.666Z,-1.92
2023-01-29T07:28:57.341Z,-1.94
2023-01-29T07:31:26.085Z,-1.95
2023-01-29T07:33:55.548Z,-2.01
2023-01-29T07:36:24.637Z,-1.98
2023-01-29T07:38:53.419Z,-1.99
2023-01-29T07:41:22.208Z,-2.02
2023-01-29T07:43:50.886Z,-2.00
2023-01-29T07:46:19.583Z,-1.99
2023-01-29T07:48:48.359Z,-2.09
2023-01-29T07:51:18.795Z,-2.12
2023-01-29T07:53:48.292Z,-2.19
2023-01-29T07:56:16.877Z,-2.22
2023-01-29T07:58:45.667Z,-2.20
2023-01-29T08:01:15.263Z,-2.17
2023-01-29T08:03:43.954Z,-2.10
2023-01-29T08:06:12.748Z,-2.02
2023-01-29T08:08:41.327Z,-1.94
2023-01-29T08:11:10.129Z,-1.87
2023-01-29T08:13:38.918Z,-1.82
2023-01-29T08:16:08.457Z,-1.77
2023-01-29T08:18:38.526Z,-1.69
2023-01-29T08:21:07.116Z,-1.61
2023-01-29T08:23:35.910Z,-1.56
2023-01-29T08:26:05.512Z,-1.48
2023-01-29T08:28:35.111Z,-1.44
2023-01-29T08:31:03.828Z,-1.40
2023-01-29T08:33:38.989Z,-1.32
2023-01-29T08:36:09.363Z,-1.29
2023-01-29T08:38:38.505Z,-1.32
2023-01-29T08:41:08.277Z,-1.24
2023-01-29T08:43:40.128Z,-1.22
2023-01-29T08:46:09.562Z,-1.21
2023-01-29T08:48:38.520Z,-1.19
2023-01-29T08:51:07.327Z,-1.14
2023-01-29T08:53:35.896Z,-1.25
2023-01-29T08:56:05.190Z,-1.33
2023-01-29T08:58:33.984Z,-1.31
2023-01-29T09:01:14.199Z,-1.29
2023-01-29T09:03:44.352Z,-1.25
2023-01-29T09:06:14.995Z,-1.29
2023-01-29T09:08:43.779Z,-1.30
2023-01-29T09:11:13.498Z,-1.41
2023-01-29T09:13:42.270Z,-1.42
2023-01-29T09:16:11.266Z,-1.49
2023-01-29T09:18:39.806Z,-1.53
2023-01-29T09:21:08.442Z,-1.50
2023-01-29T09:23:37.123Z,-1.44
2023-01-29T09:26:07.972Z,-1.37
2023-01-29T09:28:37.150Z,-1.31
2023-01-29T09:31:05.946Z,-1.35
2023-01-29T09:33:34.733Z,-1.27
2023-01-29T09:36:04.937Z,-1.21
2023-01-29T09:38:33.326Z,-1.15
2023-01-29T09:41:20.861Z,-1.10
2023-01-29T09:44:18.663Z,-1.06
2023-01-29T09:46:51.810Z,-1.01
2023-01-29T09:49:26.644Z,-0.99
2023-01-29T09:52:04.442Z,-0.90
2023-01-29T09:54:42.850Z,-0.83
2023-01-29T09:57:19.809Z,-0.74
2023-01-29T09:59:49.032Z,-0.65
2023-01-29T10:02:20.250Z,-0.60
2023-01-29T10:04:49.349Z,-0.54
2023-01-29T10:07:37.014Z,-0.41
2023-01-29T10:10:48.603Z,-0.29
2023-01-29T10:13:40.273Z,-0.24
2023-01-29T10:16:27.746Z,-0.21
2023-01-29T10:19:17.626Z,-0.20
2023-01-29T10:22:15.189Z,-0.19
2023-01-29T10:25:03.554Z,-0.16
2023-01-29T10:27:35.016Z,-0.13
2023-01-29T10:30:09.755Z,-0.07
2023-01-29T10:32:38.599Z,-0.07
2023-01-29T10:35:23.065Z,-0.06
2023-01-29T10:37:54.604Z,0.02
2023-01-29T10:40:34.148Z,0.06
2023-01-29T10:43:13.490Z,0.22
2023-01-29T10:46:07.668Z,0.35
2023-01-29T10:48:47.922Z,0.34
2023-01-29T10:51:34.735Z,0.34
2023-01-29T10:54:22.472Z,0.45
2023-01-29T10:57:02.718Z,0.57
2023-01-29T11:00:07.761Z,0.52
2023-01-29T11:02:36.483Z,0.48
2023-01-29T11:05:37.281Z,0.30
2023-01-29T11:08:12.627Z,0.21
2023-01-29T11:10:55.954Z,-0.08
2023-01-29T11:13:39.180Z,-0.27
2023-01-29T11:16:10.322Z,-0.33
2023-01-29T11:18:59.797Z,-0.36
2023-01-29T11:21:29.920Z,-0.43
2023-01-29T11:24:17.855Z,-0.50
2023-01-29T11:26:49.313Z,-0.62
2023-01-29T11:29:42.565Z,-0.56
2023-01-29T11:32:30.436Z,-0.55
2023-01-29T11:35:17.206Z,-0.50
2023-01-29T11:37:47.232Z,-0.53
2023-01-29T11:40:18.911Z,-0.48
2023-01-29T11:42:49.414Z,-0.45
2023-01-29T11:45:20.963Z,-0.36
2023-01-29T11:47:55.286Z,-0.26
2023-01-29T11:50:29.701Z,-0.13
2023-01-29T11:53:02.070Z,-0.05
2023-01-29T11:55:49.391Z,0.01
2023-01-29T11:58:29.860Z,0.08
2023-01-29T12:01:00.283Z,0.08
2023-01-29T12:03:40.266Z,0.03
2023-01-29T12:06:14.903Z,0.02
2023-01-29T12:08:43.437Z,0.09
2023-01-29T12:11:26.051Z,0.12
2023-01-29T12:13:57.464Z,0.16
2023-01-29T12:16:32.094Z,0.17
2023-01-29T12:19:35.692Z,0.17
2023-01-29T12:22:11.276Z,0.16
2023-01-29T12:24:54.914Z,0.09
2023-01-29T12:27:36.817Z,0.04
2023-01-29T12:30:15.779Z,-0.04
2023-01-29T12:33:23.402Z,-0.07
2023-01-29T12:36:19.165Z,0.01
2023-01-29T12:38:48.255Z,0.11
2023-01-29T12:41:35.476Z,0.18
2023-01-29T12:44:31.095Z,0.24
2023-01-29T12:47:02.673Z,0.28
2023-01-29T12:49:39.538Z,0.28
2023-01-29T12:52:08.096Z,0.32
2023-01-29T12:54:49.789Z,0.31
2023-01-29T12:57:42.130Z,0.28
2023-01-29T13:00:18.816Z,0.31
2023-01-29T13:02:58.885Z,0.28
2023-01-29T13:05:31.944Z,0.30
2023-01-29T13:08:08.921Z,0.25
2023-01-29T13:10:43.352Z,0.21
2023-01-29T13:13:45.408Z,0.18
2023-01-29T13:16:16.204Z,0.10
2023-01-29T13:18:54.353Z,0.12
2023-01-29T13:21:27.770Z,0.13
2023-01-29T13:24:03.091Z,0.11
2023-01-29T13:26:32.993Z,0.05
2023-01-29T13:29:02.821Z,0.02
2023-01-29T13:31:41.291Z,-0.05
2023-01-29T13:34:43.295Z,-0.12
2023-01-29T13:37:20.172Z,-0.14
2023-01-29T13:39:52.549Z,-0.25
2023-01-29T13:42:26.252Z,-0.35
2023-01-29T13:44:57.868Z,-0.49
2023-01-29T13:47:30.990Z,-0.53
2023-01-29T13:50:01.321Z,-0.54
2023-01-29T13:52:41.259Z,-0.55
2023-01-29T13:55:19.031Z,-0.58
2023-01-29T13:57:49.599Z,-0.62
2023-01-29T14:00:20.946Z,-0.65
2023-01-29T14:02:56.083Z,-0.71
2023-01-29T14:05:31.122Z,-0.71
2023-01-29T14:08:00.833Z,-0.72
2023-01-29T14:10:32.369Z,-0.72
2023-01-29T14:13:03.848Z,-0.74
2023-01-29T14:15:35.806Z,-0.70
2023-01-29T14:18:21.876Z,-0.68
2023-01-29T14:20:58.246Z,-0.71
2023-01-29T14:23:42.177Z,-0.79
2023-01-29T14:26:29.152Z,-0.85
2023-01-29T14:29:07.106Z,-0.94
2023-01-29T14:31:35.841Z,-1.01
2023-01-29T14:34:14.832Z,-1.05
2023-01-29T14:36:45.770Z,-1.06
2023-01-29T14:39:45.048Z,-1.07
2023-01-29T14:42:22.860Z,-1.09
2023-01-29T14:44:54.319Z,-1.19
2023-01-29T14:47:25.967Z,-1.23
2023-01-29T14:49:56.937Z,-1.24
2023-01-29T14:52:47.403Z,-1.23
2023-01-29T14:55:42.114Z,-1.25
2023-01-29T14:58:28.503Z,-1.27
2023-01-29T15:01:00.356Z,-1.36
2023-01-29T15:03:31.710Z,-1.39
2023-01-29T15:06:01.342Z,-1.43
2023-01-29T15:08:41.153Z,-1.46
2023-01-29T15:11:36.364Z,-1.50
2023-01-29T15:14:24.262Z,-1.57
2023-01-29T15:17:24.115Z,-1.59
2023-01-29T15:19:53.209Z,-1.59
2023-01-29T15:22:26.223Z,-1.59
2023-01-29T15:25:28.471Z,-1.57
2023-01-29T15:27:59.052Z,-1.60
2023-01-29T15:30:38.066Z,-1.62
2023-01-29T15:33:11.011Z,-1.63
2023-01-29T15:35:42.411Z,-1.60
2023-01-29T15:38:16.584Z,-1.57
2023-01-29T15:40:59.398Z,-1.54
2023-01-29T15:43:35.461Z,-1.54
2023-01-29T15:46:19.703Z,-1.54
2023-01-29T15:48:50.437Z,-1.54
2023-01-29T15:51:27.265Z,-1.51
2023-01-29T15:54:01.025Z,-1.50
2023-01-29T15:56:53.364Z,-1.49
2023-01-29T15:59:45.012Z,-1.48
2023-01-29T16:02:35.075Z,-1.44
2023-01-29T16:05:06.765Z,-1.41
2023-01-29T16:07:37.308Z,-1.38
2023-01-29T16:10:07.980Z,-1.28
2023-01-29T16:12:36.777Z,-1.33
2023-01-29T16:15:06.378Z,-1.47
2023-01-29T16:17:39.282Z,-1.56
2023-01-29T16:20:30.788Z,-1.64
2023-01-29T16:23:00.491Z,-1.64
2023-01-29T16:25:31.536Z,-1.64
2023-01-29T16:28:05.131Z,-1.64
2023-01-29T16:30:33.726Z,-1.64
2023-01-29T16:33:05.495Z,-1.64
2023-01-29T16:35:36.308Z,-1.63
2023-01-29T16:38:32.554Z,-1.61
2023-01-29T16:41:31.382Z,-1.61
2023-01-29T16:44:03.316Z,-1.63
2023-01-29T16:46:45.352Z,-1.67
2023-01-29T16:49:26.371Z,-1.65
2023-01-29T16:51:58.736Z,-1.70
2023-01-29T16:54:28.143Z,-1.67
2023-01-29T16:57:00.686Z,-1.65
2023-01-29T16:59:40.012Z,-1.63
2023-01-29T17:02:28.819Z,-1.62
2023-01-29T17:05:02.335Z,-1.67
2023-01-29T17:07:32.841Z,-1.65
2023-01-29T17:10:04.603Z,-1.65
2023-01-29T17:12:34.405Z,-1.65
2023-01-29T17:15:24.599Z,-1.67
2023-01-29T17:17:53.076Z,-1.67
2023-01-29T17:20:22.170Z,-1.68
2023-01-29T17:22:50.963Z,-1.70
2023-01-29T17:25:19.830Z,-1.73
2023-01-29T17:27:52.145Z,-1.75
2023-01-29T17:30:24.157Z,-1.74
2023-01-29T17:32:53.490Z,-1.75
2023-01-29T17:35:22.372Z,-1.77
2023-01-29T17:37:50.957Z,-1.82
2023-01-29T17:40:22.920Z,-1.85
2023-01-29T17:42:51.400Z,-1.86
2023-01-29T17:45:20.141Z,-1.89
2023-01-29T17:47:49.294Z,-1.90
2023-01-29T17:50:23.096Z,-1.94
2023-01-29T17:52:51.930Z,-1.91
2023-01-29T17:55:21.076Z,-1.95
2023-01-29T17:57:49.763Z,-1.96
2023-01-29T18:00:23.600Z,-1.96
2023-01-29T18:02:52.369Z,-1.95
2023-01-29T18:05:21.106Z,-1.93
2023-01-29T18:07:52.486Z,-1.91
2023-01-29T18:10:21.907Z,-1.95
2023-01-29T18:12:50.368Z,-1.93
2023-01-29T18:15:19.634Z,-1.91
2023-01-29T18:17:48.983Z,-1.91
2023-01-29T18:20:22.368Z,-1.92
2023-01-29T18:22:50.990Z,-1.94
2023-01-29T18:25:20.136Z,-1.95
2023-01-29T18:27:48.938Z,-1.93
2023-01-29T18:30:18.136Z,-1.93
2023-01-29T18:32:47.947Z,-1.97
2023-01-29T18:35:17.865Z,-1.95
2023-01-29T18:37:46.952Z,-1.95
2023-01-29T18:40:17.479Z,-1.99
2023-01-29T18:42:46.707Z,-2.01
2023-01-29T18:45:16.021Z,-2.00
2023-01-29T18:47:44.971Z,-1.99
2023-01-29T18:50:13.556Z,-2.00
2023-01-29T18:52:44.190Z,-1.98
2023-01-29T18:55:12.666Z,-1.98
2023-01-29T18:58:28.443Z,-1.98
2023-01-29T19:00:30.632Z,-1.98
2023-01-29T19:02:59.830Z,-1.99
2023-01-29T19:05:28.505Z,-2.00
2023-01-29T19:07:57.088Z,-2.01
2023-01-29T19:10:26.693Z,-2.02
2023-01-29T19:12:55.182Z,-2.03
2023-01-29T19:15:23.759Z,-2.03
2023-01-29T19:17:53.280Z,-2.02
2023-01-29T19:20:21.845Z,-2.02
2023-01-29T19:22:50.538Z,-2.03
2023-01-29T19:25:19.817Z,-2.04
2023-01-29T19:27:48.729Z,-2.07
2023-01-29T19:30:18.079Z,-2.07
2023-01-29T19:32:46.709Z,-2.09
2023-01-29T19:35:15.528Z,-2.09
2023-01-29T19:37:45.001Z,-2.10
2023-01-29T19:40:13.993Z,-2.10
2023-01-29T19:42:42.583Z,-2.12
2023-01-29T19:45:11.264Z,-2.12
2023-01-29T19:47:41.424Z,-2.13
2023-01-29T19:50:11.105Z,-2.14
2023-01-29T19:52:50.872Z,-2.13
2023-01-29T19:55:21.413Z,-2.14
2023-01-29T19:57:53.462Z,-2.15
2023-01-29T20:00:22.451Z,-2.17
2023-01-29T20:02:51.018Z,-2.16
2023-01-29T20:05:20.724Z,-2.19
2023-01-29T20:07:50.330Z,-2.21
2023-01-29T20:10:19.272Z,-2.26
2023-01-29T20:12:48.531Z,-2.26
2023-01-29T20:15:17.197Z,-2.29
2023-01-29T20:17:46.302Z,-2.30
2023-01-29T20:20:16.793Z,-2.30
2023-01-29T20:22:45.719Z,-2.31
2023-01-29T20:25:14.470Z,-2.30
2023-01-29T20:27:43.085Z,-2.32
2023-01-29T20:30:12.490Z,-2.35
2023-01-29T20:32:41.281Z,-2.37
2023-01-29T20:35:10.520Z,-2.37
2023-01-29T20:37:38.959Z,-2.37
2023-01-29T20:40:08.965Z,-2.40
2023-01-29T20:42:37.549Z,-2.39
2023-01-29T20:45:06.746Z,-2.42
2023-01-29T20:47:35.845Z,-2.44
2023-01-29T20:50:08.830Z,-2.45
2023-01-29T20:52:38.698Z,-2.53
2023-01-29T20:55:10.112Z,-2.52
2023-01-29T20:57:39.605Z,-2.54
2023-01-29T21:00:08.925Z,-2.53
2023-01-29T21:02:37.793Z,-2.53
2023-01-29T21:05:07.094Z,-2.54
2023-01-29T21:07:36.487Z,-2.52
2023-01-29T21:10:05.888Z,-2.51
2023-01-29T21:12:35.633Z,-2.52
2023-01-29T21:15:04.592Z,-2.54
2023-01-29T21:17:33.191Z,-2.57
2023-01-29T21:20:04.328Z,-2.61
2023-01-29T21:22:33.719Z,-2.63
2023-01-29T21:25:02.308Z,-2.62
2023-01-29T21:27:30.995Z,-2.64
2023-01-29T21:30:00.107Z,-2.68
2023-01-29T21:32:29.491Z,-2.67
2023-01-29T21:34:58.584Z,-2.64
2023-01-29T21:37:27.265Z,-2.65
2023-01-29T21:39:55.956Z,-2.68
2023-01-29T21:42:43.390Z,-2.65
2023-01-29T21:45:12.009Z,-2.64
2023-01-29T21:47:40.680Z,-2.65
2023-01-29T21:50:10.153Z,-2.66
2023-01-29T21:52:38.837Z,-2.67
2023-01-29T21:55:08.070Z,-2.68
2023-01-29T21:57:36.831Z,-2.70
2023-01-29T22:00:06.319Z,-2.70
2023-01-29T22:02:35.031Z,-2.75
2023-01-29T22:05:18.284Z,-2.75
2023-01-29T22:07:49.677Z,-2.76
2023-01-29T22:10:19.911Z,-2.77
2023-01-29T22:12:49.120Z,-2.78
2023-01-29T22:15:17.898Z,-2.78
2023-01-29T22:17:46.795Z,-2.79
2023-01-29T22:20:16.265Z,-2.80
2023-01-29T22:22:45.619Z,-2.80
2023-01-29T22:25:20.207Z,-2.81
2023-01-29T22:27:49.009Z,-2.79
2023-01-29T22:30:18.458Z,-2.80
2023-01-29T22:32:47.502Z,-2.81
2023-01-29T22:35:17.006Z,-2.81
2023-01-29T22:37:46.215Z,-2.79
2023-01-29T22:40:15.649Z,-2.78
2023-01-29T22:42:44.805Z,-2.77
2023-01-29T22:45:14.930Z,-2.78
2023-01-29T22:47:43.813Z,-2.80
2023-01-29T22:50:13.434Z,-2.82
2023-01-29T22:52:42.996Z,-2.81
2023-01-29T22:55:14.037Z,-2.82
2023-01-29T22:57:42.861Z,-2.81
2023-01-29T23:00:12.578Z,-2.82
2023-01-29T23:02:41.875Z,-2.82
2023-01-29T23:05:11.286Z,-2.85
2023-01-29T23:07:40.069Z,-2.87
2023-01-29T23:10:11.771Z,-2.87
2023-01-29T23:12:40.864Z,-2.86
2023-01-29T23:15:10.213Z,-2.88
2023-01-29T23:17:40.017Z,-2.88
2023-01-29T23:20:09.450Z,-2.90
2023-01-29T23:22:39.049Z,-2.94
2023-01-29T23:25:08.352Z,-2.94
2023-01-29T23:27:38.579Z,-2.95
2023-01-29T23:30:09.411Z,-2.96
2023-01-29T23:32:39.819Z,-2.99
2023-01-29T23:35:09.435Z,-3.00
2023-01-29T23:37:38.638Z,-3.04
2023-01-29T23:40:08.918Z,-3.05
2023-01-29T23:42:37.641Z,-3.08
2023-01-29T23:45:07.855Z,-3.08
2023-01-29T23:47:36.844Z,-3.08
2023-01-29T23:50:07.142Z,-3.09
2023-01-29T23:52:36.999Z,-3.10
2023-01-29T23:55:07.654Z,-3.10
2023-01-29T23:57:38.182Z,-3.10
